Time;durP1;ratioP1;P1;durP2;ratioP2;P2;SDS_P1;SDS_P2;PMS_P1;PMS_P2;Temp;Humidity;BMP_temperature;BMP_pressure;BME280_temperature;BME280_humidity;BME280_pressure;Samples;Min_cycle;Max_cycle;Signal;HPM_P1;HPM_P2
2023/10/13 00:01:23;;;;;;;6.33;3.07;;;16.30;99.90;;;;;;5035746;28;20223;-57
2023/10/13 00:03:51;;;;;;;11.83;4.07;;;16.30;99.90;;;;;;5029839;28;20665;-58
2023/10/13 00:06:18;;;;;;;5.60;2.67;;;16.30;99.90;;;;;;5032194;28;20206;-58
2023/10/13 00:08:45;;;;;;;3.77;2.93;;;16.40;99.90;;;;;;5025633;28;20245;-58
2023/10/13 00:11:18;;;;;;;5.07;2.47;;;16.40;99.90;;;;;;5017469;28;20930;-57
2023/10/13 00:13:50;;;;;;;3.07;2.83;;;16.40;99.90;;;;;;5023661;28;20203;-58
2023/10/13 00:16:21;;;;;;;5.50;3.13;;;16.40;99.90;;;;;;5031649;28;20693;-59
2023/10/13 00:18:50;;;;;;;5.67;3.23;;;16.40;99.90;;;;;;5032645;28;20222;-58
2023/10/13 00:21:31;;;;;;;3.57;2.53;;;16.50;99.90;;;;;;5024291;28;20249;-58
2023/10/13 00:24:01;;;;;;;4.70;3.57;;;16.60;99.90;;;;;;5028053;28;20202;-58
2023/10/13 00:26:29;;;;;;;3.33;2.33;;;16.60;99.90;;;;;;5031196;28;20203;-58
2023/10/13 00:29:08;;;;;;;6.23;2.37;;;16.60;99.90;;;;;;5015139;28;20231;-58
2023/10/13 00:31:38;;;;;;;3.47;2.60;;;16.60;99.90;;;;;;5030297;28;20202;-58
2023/10/13 00:34:18;;;;;;;4.27;2.57;;;16.60;99.90;;;;;;5018024;28;20203;-58
2023/10/13 00:36:48;;;;;;;8.67;2.87;;;16.50;99.90;;;;;;5024798;28;20202;-58
2023/10/13 00:39:15;;;;;;;8.53;3.17;;;16.50;99.90;;;;;;5027359;28;20294;-58
2023/10/13 00:41:56;;;;;;;7.77;2.17;;;16.50;99.90;;;;;;5039743;28;20229;-58
2023/10/13 00:44:26;;;;;;;4.93;2.57;;;16.40;99.90;;;;;;5033292;28;20222;-57
2023/10/13 00:46:56;;;;;;;4.50;2.33;;;16.30;99.90;;;;;;5005999;28;20214;-58
2023/10/13 00:49:23;;;;;;;7.83;2.90;;;16.20;99.90;;;;;;5015194;28;20234;-58
2023/10/13 00:51:51;;;;;;;3.67;2.63;;;16.00;99.90;;;;;;5040823;28;20230;-57
2023/10/13 00:54:18;;;;;;;3.97;2.23;;;15.80;99.90;;;;;;5032781;28;20207;-58
2023/10/13 00:56:49;;;;;;;2.47;2.37;;;15.90;99.90;;;;;;5031483;28;20217;-58
2023/10/13 00:59:16;;;;;;;4.30;2.50;;;15.90;99.90;;;;;;5029972;28;20305;-58
2023/10/13 01:01:43;;;;;;;4.17;2.83;;;15.90;99.90;;;;;;5040508;28;20218;-58
2023/10/13 01:04:12;;;;;;;10.07;2.70;;;15.90;99.90;;;;;;5025713;28;20293;-58
2023/10/13 01:06:40;;;;;;;7.60;2.30;;;15.90;99.90;;;;;;5018489;28;20199;-58
2023/10/13 01:09:14;;;;;;;4.03;2.57;;;15.90;99.90;;;;;;5012074;28;20289;-58
2023/10/13 01:11:43;;;;;;;6.03;2.60;;;15.90;99.90;;;;;;5032430;28;20240;-58
2023/10/13 01:14:11;;;;;;;6.07;2.57;;;16.00;99.90;;;;;;5029507;28;20206;-58
2023/10/13 01:16:40;;;;;;;3.00;2.50;;;16.10;99.90;;;;;;5035704;28;20215;-58
2023/10/13 01:19:06;;;;;;;6.40;2.37;;;16.10;99.90;;;;;;5030921;28;20222;-58
2023/10/13 01:21:35;;;;;;;4.47;2.17;;;16.10;99.90;;;;;;5038310;28;20266;-58
2023/10/13 01:24:07;;;;;;;8.07;2.87;;;16.10;99.90;;;;;;5045904;28;20255;-58
2023/10/13 01:26:38;;;;;;;6.40;2.47;;;16.00;99.90;;;;;;5051931;28;20668;-58
2023/10/13 01:29:14;;;;;;;3.97;3.13;;;15.90;99.90;;;;;;5051715;28;20693;-58
2023/10/13 01:31:45;;;;;;;4.00;2.70;;;15.80;99.90;;;;;;5035220;28;20205;-58
2023/10/13 01:34:13;;;;;;;2.83;2.57;;;15.70;99.90;;;;;;5039270;28;20629;-58
2023/10/13 01:36:43;;;;;;;3.47;2.70;;;15.60;99.90;;;;;;5051741;28;20700;-58
2023/10/13 01:39:10;;;;;;;5.40;2.33;;;15.60;99.90;;;;;;5051819;28;20224;-58
2023/10/13 01:41:39;;;;;;;7.20;3.03;;;15.50;99.90;;;;;;5032653;28;20309;-58
2023/10/13 01:44:05;;;;;;;5.00;3.83;;;15.50;99.90;;;;;;5021344;28;20612;-57
2023/10/13 01:46:36;;;;;;;2.80;2.30;;;15.40;99.90;;;;;;5031258;28;20237;-58
2023/10/13 01:49:03;;;;;;;4.30;2.10;;;15.30;99.90;;;;;;5039118;28;20740;-58
2023/10/13 01:51:30;;;;;;;3.53;1.80;;;15.30;99.90;;;;;;5049819;28;20190;-58
2023/10/13 01:53:56;;;;;;;2.43;1.93;;;15.20;99.90;;;;;;5040783;28;20284;-58
2023/10/13 01:56:25;;;;;;;2.37;2.13;;;15.30;99.90;;;;;;5029958;28;20195;-58
2023/10/13 01:58:51;;;;;;;5.20;2.23;;;15.10;99.90;;;;;;5042418;28;20214;-58
2023/10/13 02:01:26;;;;;;;4.30;2.17;;;15.00;99.90;;;;;;5050915;28;20222;-58
2023/10/13 02:04:01;;;;;;;3.23;2.03;;;15.00;99.90;;;;;;5039357;28;20241;-58
2023/10/13 02:06:32;;;;;;;6.97;2.43;;;14.90;99.90;;;;;;5031317;28;20209;-58
2023/10/13 02:09:05;;;;;;;3.37;2.30;;;14.90;99.90;;;;;;5042794;28;20240;-58
2023/10/13 02:11:33;;;;;;;7.37;2.43;;;14.90;99.90;;;;;;5049973;28;20198;-58
2023/10/13 02:14:00;;;;;;;3.17;2.67;;;14.90;99.90;;;;;;5033822;28;20210;-58
2023/10/13 02:16:27;;;;;;;2.67;2.13;;;14.90;99.90;;;;;;5039999;28;20209;-58
2023/10/13 02:18:53;;;;;;;4.27;2.73;;;14.90;99.90;;;;;;5036983;28;20214;-58
2023/10/13 02:21:20;;;;;;;4.90;2.70;;;14.90;99.90;;;;;;5035234;28;20215;-58
2023/10/13 02:23:59;;;;;;;3.47;2.33;;;14.90;99.90;;;;;;5036528;28;20194;-58
2023/10/13 02:26:30;;;;;;;5.73;2.83;;;14.90;99.90;;;;;;5028898;28;20323;-58
2023/10/13 02:28:58;;;;;;;3.47;2.73;;;14.90;99.90;;;;;;5022919;28;20647;-58
2023/10/13 02:31:25;;;;;;;4.00;2.30;;;14.90;99.90;;;;;;5032447;28;20209;-58
2023/10/13 02:33:53;;;;;;;4.90;2.00;;;14.80;99.90;;;;;;5035463;28;20194;-58
2023/10/13 02:36:22;;;;;;;3.97;2.33;;;14.60;99.90;;;;;;5050962;28;20292;-58
2023/10/13 02:38:50;;;;;;;2.60;2.37;;;14.60;99.90;;;;;;5046583;28;20221;-58
2023/10/13 02:41:25;;;;;;;3.83;3.03;;;14.50;99.90;;;;;;5023679;28;20223;-58
2023/10/13 02:43:52;;;;;;;3.60;2.53;;;14.40;99.90;;;;;;5026439;28;20202;-58
2023/10/13 02:46:21;;;;;;;3.00;2.57;;;14.40;99.90;;;;;;5039082;28;20284;-58
2023/10/13 02:48:52;;;;;;;3.33;2.30;;;14.30;99.90;;;;;;5030824;28;20222;-58
2023/10/13 02:51:25;;;;;;;4.17;2.40;;;14.20;99.90;;;;;;5031139;28;20316;-58
2023/10/13 02:53:52;;;;;;;3.20;2.33;;;14.20;99.90;;;;;;5029251;28;20300;-58
2023/10/13 02:56:20;;;;;;;5.23;2.77;;;14.20;99.90;;;;;;5022678;28;20229;-58
2023/10/13 02:58:53;;;;;;;11.63;3.33;;;14.30;99.90;;;;;;5029083;28;20718;-58
2023/10/13 03:01:26;;;;;;;6.33;2.50;;;14.20;99.90;;;;;;5010869;28;20221;-58
2023/10/13 03:03:54;;;;;;;6.37;1.77;;;14.10;99.90;;;;;;5010972;28;20218;-58
2023/10/13 03:06:24;;;;;;;4.03;2.77;;;14.10;99.90;;;;;;5010981;28;20203;-58
2023/10/13 03:08:51;;;;;;;5.03;2.70;;;14.10;99.90;;;;;;5019322;28;20690;-58
2023/10/13 03:11:21;;;;;;;2.67;2.47;;;14.20;99.90;;;;;;5029137;28;20205;-58
2023/10/13 03:13:52;;;;;;;5.97;2.07;;;14.20;99.90;;;;;;5041481;28;20199;-58
2023/10/13 03:16:20;;;;;;;5.43;2.33;;;14.10;99.90;;;;;;5034545;28;20199;-58
2023/10/13 03:18:57;;;;;;;1.67;1.57;;;14.00;99.90;;;;;;5014662;28;20219;-58
2023/10/13 03:21:30;;;;;;;1.80;1.53;;;13.90;99.90;;;;;;5018952;28;20685;-58
2023/10/13 03:24:04;;;;;;;5.57;2.30;;;13.80;99.90;;;;;;5041609;28;20277;-58
2023/10/13 03:26:34;;;;;;;2.60;1.87;;;13.80;99.90;;;;;;5034301;28;20581;-58
2023/10/13 03:29:03;;;;;;;3.77;2.30;;;13.70;99.90;;;;;;5045899;28;20226;-58
2023/10/13 03:31:36;;;;;;;4.93;2.13;;;13.60;99.90;;;;;;5054356;28;20194;-58
2023/10/13 03:34:05;;;;;;;3.30;2.50;;;13.60;99.90;;;;;;5046630;28;20387;-58
2023/10/13 03:39:17;;;;;;;4.77;2.53;;;13.50;99.90;;;;;;5053133;28;20594;-58
2023/10/13 03:41:45;;;;;;;7.70;2.50;;;13.50;99.90;;;;;;5020760;28;20218;-58
2023/10/13 03:44:17;;;;;;;2.10;2.00;;;13.40;99.90;;;;;;5041896;28;20202;-58
2023/10/13 03:46:47;;;;;;;4.17;2.47;;;13.40;99.90;;;;;;5033875;28;20216;-58
2023/10/13 03:49:15;;;;;;;6.07;2.60;;;13.30;99.90;;;;;;5045702;28;20315;-58
2023/10/13 03:51:43;;;;;;;4.33;2.27;;;13.30;99.90;;;;;;5054012;28;20220;-58
2023/10/13 03:54:15;;;;;;;3.00;2.47;;;13.40;99.90;;;;;;5053522;28;20205;-58
2023/10/13 03:56:44;;;;;;;4.80;2.07;;;13.40;99.90;;;;;;5050452;28;20224;-58
2023/10/13 03:59:18;;;;;;;5.63;2.00;;;13.50;99.90;;;;;;5021828;28;20226;-58
2023/10/13 04:01:49;;;;;;;5.70;2.97;;;13.60;99.90;;;;;;5037023;28;20268;-58
2023/10/13 04:04:33;;;;;;;3.03;2.20;;;13.70;99.90;;;;;;5039715;28;20198;-58
2023/10/13 04:07:13;;;;;;;3.50;2.00;;;13.90;99.90;;;;;;5025091;28;20212;-58
2023/10/13 04:10:19;;;;;;;3.53;1.73;;;14.00;99.90;;;;;;5032906;28;20284;-58
2023/10/13 04:15:36;;;;;;;3.47;2.20;;;14.00;99.90;;;;;;5028146;28;20210;-58
2023/10/13 04:18:18;;;;;;;6.37;2.10;;;14.00;99.90;;;;;;5033534;28;20428;-57
2023/10/13 04:21:07;;;;;;;4.07;1.90;;;14.00;99.90;;;;;;5033212;28;20199;-58
2023/10/13 04:24:08;;;;;;;2.63;1.90;;;14.00;99.90;;;;;;5028755;28;20203;-58
2023/10/13 04:26:22;;;;;;;3.47;2.37;;;14.00;99.90;;;;;;5021975;28;20207;-58
2023/10/13 04:28:52;;;;;;;3.67;2.63;;;14.00;99.90;;;;;;5015182;28;20222;-57
2023/10/13 04:34:15;;;;;;;2.70;1.73;;;14.00;99.90;;;;;;5017389;28;20345;-57
2023/10/13 04:36:46;;;;;;;4.40;2.50;;;14.00;99.90;;;;;;5026449;28;20206;-58
2023/10/13 04:39:29;;;;;;;8.37;2.30;;;14.00;99.90;;;;;;5024324;28;20222;-57
2023/10/13 04:42:10;;;;;;;4.07;2.37;;;14.10;99.90;;;;;;5019284;28;20219;-57
2023/10/13 04:44:48;;;;;;;9.00;2.50;;;14.10;99.90;;;;;;5012673;28;20199;-58
2023/10/13 04:47:21;;;;;;;3.80;1.97;;;14.10;99.90;;;;;;5017605;28;20570;-58
2023/10/13 04:49:52;;;;;;;4.57;2.20;;;14.00;99.90;;;;;;5023256;28;20729;-58
2023/10/13 04:52:50;;;;;;;3.83;2.17;;;14.00;99.90;;;;;;5026865;28;20195;-58
2023/10/13 04:55:24;;;;;;;5.00;2.70;;;13.90;99.90;;;;;;5023035;28;20670;-57
2023/10/13 04:58:00;;;;;;;6.63;2.40;;;13.90;99.90;;;;;;5025368;28;20737;-57
2023/10/13 05:44:32;;;;;;;6.13;2.43;;;13.90;99.90;;;;;;5019121;28;20256;-57
2023/10/13 05:44:56;;;;;;;5.63;2.20;;;13.50;99.90;;;;;;5010863;28;20230;-57
2023/10/13 05:50:29;;;;;;;3.47;2.33;;;13.50;99.90;;;;;;5013115;28;20756;-58
2023/10/13 06:28:43;;;;;;;4.87;2.20;;;14.30;99.90;;;;;;5026536;28;20661;-57
2023/10/13 06:31:21;;;;;;;5.57;2.70;;;14.30;99.90;;;;;;5018310;28;20202;-58
2023/10/13 06:33:48;;;;;;;3.10;2.40;;;14.40;99.90;;;;;;5019473;28;20367;-58
2023/10/13 06:36:17;;;;;;;3.03;1.80;;;14.50;99.90;;;;;;5011166;28;20206;-57
2023/10/13 06:38:44;;;;;;;2.93;2.27;;;14.50;99.90;;;;;;5015907;28;20784;-58
2023/10/13 06:41:19;;;;;;;4.30;2.43;;;14.50;99.90;;;;;;5013125;28;20222;-57
2023/10/13 06:43:59;;;;;;;2.97;2.30;;;14.60;99.90;;;;;;5012546;28;20285;-57
2023/10/13 06:46:28;;;;;;;6.33;2.20;;;14.70;99.90;;;;;;5017817;28;20647;-58
2023/10/13 06:48:59;;;;;;;6.27;2.03;;;14.80;99.90;;;;;;5019068;28;20236;-57
2023/10/13 06:51:30;;;;;;;7.73;2.43;;;14.80;99.90;;;;;;5024834;28;20217;-57
2023/10/13 06:53:58;;;;;;;6.53;2.77;;;14.90;99.90;;;;;;5016800;28;20256;-57
2023/10/13 06:56:28;;;;;;;5.73;3.20;;;14.90;99.90;;;;;;5021893;28;20207;-57
2023/10/13 06:59:02;;;;;;;5.30;2.10;;;15.00;99.90;;;;;;5024570;28;20242;-57
2023/10/13 07:01:29;;;;;;;4.50;2.77;;;15.10;99.90;;;;;;5014554;28;20597;-57
2023/10/13 07:04:01;;;;;;;6.43;1.70;;;15.20;99.90;;;;;;5021817;28;20578;-57
2023/10/13 07:06:28;;;;;;;6.90;2.60;;;15.30;99.90;;;;;;5014754;28;20306;-57
2023/10/13 07:08:55;;;;;;;3.43;2.43;;;15.30;99.90;;;;;;5014616;28;20349;-57
2023/10/13 07:11:33;;;;;;;6.47;2.13;;;15.40;99.90;;;;;;5014590;28;20655;-57
2023/10/13 07:14:10;;;;;;;5.67;2.80;;;15.50;99.90;;;;;;5016975;28;20685;-57
2023/10/13 07:16:58;;;;;;;6.97;2.40;;;15.60;99.90;;;;;;5018529;28;20285;-58
2023/10/13 07:19:27;;;;;;;7.23;2.53;;;15.70;99.90;;;;;;5015255;28;20613;-58
2023/10/13 07:21:59;;;;;;;4.20;1.93;;;15.90;99.90;;;;;;5019090;28;20211;-58
2023/10/13 07:24:27;;;;;;;6.90;2.13;;;16.00;99.90;;;;;;5015113;28;20290;-57
2023/10/13 07:27:03;;;;;;;2.30;2.13;;;16.10;99.90;;;;;;5017871;28;20199;-58
2023/10/13 07:29:33;;;;;;;5.80;2.00;;;16.20;99.90;;;;;;5021621;28;20316;-57
2023/10/13 07:32:02;;;;;;;5.83;1.90;;;16.30;99.90;;;;;;5032420;28;20573;-57
2023/10/13 07:34:31;;;;;;;8.47;2.47;;;16.40;99.90;;;;;;5027340;28;20202;-58
2023/10/13 07:37:00;;;;;;;3.37;2.30;;;16.40;99.90;;;;;;5034168;28;20325;-58
2023/10/13 07:39:33;;;;;;;7.87;2.30;;;16.50;99.90;;;;;;5033971;28;20226;-58
2023/10/13 07:42:05;;;;;;;6.43;2.20;;;16.60;99.90;;;;;;5033328;28;20222;-58
2023/10/13 07:44:34;;;;;;;4.60;2.43;;;16.60;99.90;;;;;;5033808;28;20289;-58
2023/10/13 07:47:03;;;;;;;4.17;1.70;;;16.60;99.90;;;;;;5025107;28;20272;-57
2023/10/13 07:49:32;;;;;;;5.23;2.40;;;16.70;99.90;;;;;;5026926;28;20262;-58
2023/10/13 07:52:14;;;;;;;4.57;2.13;;;16.90;99.90;;;;;;5016623;28;20671;-58
2023/10/13 07:54:44;;;;;;;4.77;2.23;;;16.90;99.90;;;;;;5013647;28;20207;-58
2023/10/13 07:57:14;;;;;;;7.17;2.77;;;17.00;99.90;;;;;;5019887;28;20230;-58
2023/10/13 07:59:48;;;;;;;3.77;2.80;;;17.10;99.90;;;;;;5022208;28;20318;-58
2023/10/13 08:02:33;;;;;;;3.00;2.10;;;17.20;99.90;;;;;;5013421;28;20223;-58
2023/10/13 08:05:00;;;;;;;11.37;2.67;;;17.40;99.90;;;;;;5014155;28;20225;-58
2023/10/13 08:07:28;;;;;;;6.40;2.97;;;17.50;99.90;;;;;;5017263;28;20534;-58
2023/10/13 08:09:57;;;;;;;6.43;2.90;;;17.70;99.90;;;;;;5013591;28;20219;-57
2023/10/13 08:12:24;;;;;;;3.33;1.47;;;17.70;99.90;;;;;;5013066;28;20218;-58
2023/10/13 08:15:11;;;;;;;3.93;2.23;;;17.90;99.90;;;;;;5016711;28;20659;-57
2023/10/13 08:17:44;;;;;;;3.57;2.10;;;18.00;99.90;;;;;;5013825;28;20258;-58
2023/10/13 08:20:12;;;;;;;2.37;1.93;;;18.00;99.90;;;;;;5015823;28;20230;-58
2023/10/13 08:22:42;;;;;;;11.53;2.37;;;18.10;99.90;;;;;;5012839;28;20325;-58
2023/10/13 08:25:20;;;;;;;3.23;2.60;;;18.30;99.90;;;;;;5013240;28;20257;-57
2023/10/13 08:27:50;;;;;;;5.60;2.80;;;18.20;99.90;;;;;;5021353;28;20207;-58
2023/10/13 08:30:29;;;;;;;4.27;2.07;;;18.40;99.90;;;;;;5014917;28;20736;-57
2023/10/13 08:32:56;;;;;;;5.20;1.93;;;18.40;99.90;;;;;;5021561;28;20199;-58
2023/10/13 08:35:33;;;;;;;4.40;2.13;;;18.60;99.90;;;;;;5021252;28;20249;-58
2023/10/13 08:38:03;;;;;;;5.90;2.23;;;18.60;99.90;;;;;;5019516;28;20201;-58
2023/10/13 08:43:16;;;;;;;10.60;2.20;;;19.20;99.90;;;;;;5024171;28;20357;-58
2023/10/13 08:45:53;;;;;;;4.63;2.43;;;20.20;99.90;;;;;;5022983;28;20211;-58
2023/10/13 08:48:26;;;;;;;4.77;3.20;;;21.00;99.90;;;;;;5040516;28;20695;-58
2023/10/13 08:50:55;;;;;;;2.77;1.73;;;21.60;99.90;;;;;;5031575;28;20597;-58
2023/10/13 08:53:31;;;;;;;3.60;1.73;;;22.20;99.90;;;;;;5039108;28;20202;-56
2023/10/13 08:56:05;;;;;;;5.53;1.70;;;22.50;99.90;;;;;;5033364;28;20669;-55
2023/10/13 09:04:20;;;;;;;3.67;1.50;;;23.50;99.90;;;;;;5034764;28;20203;-58
2023/10/13 09:07:15;;;;;;;3.73;1.57;;;23.90;99.90;;;;;;5042107;28;20198;-58
2023/10/13 09:10:11;;;;;;;5.50;2.40;;;24.20;99.90;;;;;;5033829;28;20308;-58
2023/10/13 09:12:39;;;;;;;2.30;1.97;;;24.30;99.90;;;;;;5012610;28;20195;-58
2023/10/13 09:15:23;;;;;;;2.47;1.73;;;24.70;99.90;;;;;;5034029;28;20273;-58
2023/10/13 09:17:55;;;;;;;6.10;2.37;;;25.00;99.90;;;;;;5020256;28;20203;-58
2023/10/13 09:20:42;;;;;;;3.40;1.50;;;24.80;99.90;;;;;;5027965;28;20276;-58
2023/10/13 09:23:09;;;;;;;2.83;1.53;;;25.00;99.90;;;;;;5025397;28;20260;-56
2023/10/13 09:25:38;;;;;;;2.57;1.57;;;25.00;99.90;;;;;;5023420;28;20705;-58
2023/10/13 09:28:14;;;;;;;3.17;1.70;;;25.10;99.50;;;;;;5028831;28;20265;-56
2023/10/13 09:30:49;;;;;;;5.80;1.47;;;25.00;98.80;;;;;;5032140;28;20210;-56
2023/10/13 09:33:29;;;;;;;1.80;0.90;;;25.30;99.60;;;;;;5018855;28;20297;-56
2023/10/13 09:35:59;;;;;;;5.50;1.57;;;25.30;99.20;;;;;;5023556;28;20304;-56
2023/10/13 09:38:25;;;;;;;5.20;1.80;;;25.30;99.50;;;;;;5028618;28;20206;-56
2023/10/13 09:40:57;;;;;;;1.93;1.70;;;25.50;98.40;;;;;;5027662;28;20191;-56
2023/10/13 09:43:25;;;;;;;3.10;1.37;;;25.50;98.60;;;;;;5020917;28;20234;-56
2023/10/13 09:46:01;;;;;;;2.83;1.98;;;25.40;96.60;;;;;;5013592;28;20449;-56
2023/10/13 09:48:33;;;;;;;8.13;3.90;;;25.50;99.10;;;;;;5029551;28;20202;-54
2023/10/13 09:51:02;;;;;;;3.33;1.93;;;25.60;98.80;;;;;;5018348;28;20201;-56
2023/10/13 09:53:29;;;;;;;4.30;1.80;;;26.00;98.00;;;;;;5037547;28;20231;-55
2023/10/13 09:56:11;;;;;;;3.90;1.90;;;26.20;98.10;;;;;;5031737;28;20205;-56
2023/10/13 09:58:50;;;;;;;1.70;1.57;;;26.20;97.70;;;;;;5026718;28;20317;-55
2023/10/13 10:01:31;;;;;;;5.00;2.05;;;26.40;97.20;;;;;;5016828;28;21045;-61
2023/10/13 10:04:08;;;;;;;3.20;1.63;;;26.30;98.30;;;;;;5026213;28;20311;-57
2023/10/13 10:06:46;;;;;;;7.43;1.92;;;27.00;98.60;;;;;;5027615;28;20194;-57
2023/10/13 10:09:12;;;;;;;7.33;2.03;;;26.90;97.40;;;;;;5020681;28;20234;-57
2023/10/13 10:12:08;;;;;;;3.22;1.40;;;26.80;95.60;;;;;;5026614;28;20520;-57
2023/10/13 10:15:01;;;;;;;4.65;1.63;;;26.80;95.40;;;;;;5027958;28;20202;-57
2023/10/13 10:17:33;;;;;;;2.83;1.40;;;26.50;96.00;;;;;;5020916;28;20210;-64
2023/10/13 10:20:06;;;;;;;3.63;1.95;;;26.40;98.20;;;;;;5033247;28;20225;-58
2023/10/13 10:22:35;;;;;;;7.32;1.63;;;26.50;98.50;;;;;;5024016;28;20701;-62
2023/10/13 10:25:03;;;;;;;2.13;1.30;;;26.40;95.50;;;;;;5025992;28;20229;-62
2023/10/13 10:27:32;;;;;;;4.53;1.98;;;26.20;95.30;;;;;;5025773;28;20210;-60
2023/10/13 10:30:00;;;;;;;4.40;1.73;;;26.00;97.40;;;;;;5030221;28;20256;-60
2023/10/13 10:32:40;;;;;;;3.00;1.47;;;25.60;95.80;;;;;;5028419;28;20210;-61
2023/10/13 10:35:14;;;;;;;6.20;1.50;;;25.30;97.20;;;;;;5026730;28;20213;-55
2023/10/13 10:37:46;;;;;;;4.23;1.87;;;25.20;97.90;;;;;;5012891;28;20197;-55
2023/10/13 10:40:33;;;;;;;3.20;1.70;;;25.00;97.90;;;;;;5011316;28;20288;-55
2023/10/13 10:43:04;;;;;;;4.07;1.63;;;25.10;98.80;;;;;;5011745;28;20280;-56
2023/10/13 10:45:33;;;;;;;3.07;2.53;;;25.10;97.40;;;;;;5013487;28;20194;-56
2023/10/13 10:48:16;;;;;;;4.03;2.07;;;25.00;96.60;;;;;;5012887;28;20205;-56
2023/10/13 10:50:47;;;;;;;2.87;1.57;;;24.70;95.90;;;;;;5011351;28;20206;-56
2023/10/13 10:53:14;;;;;;;5.90;1.67;;;24.60;98.10;;;;;;5009441;28;20517;-55
2023/10/13 10:55:41;;;;;;;11.20;3.50;;;24.50;97.50;;;;;;5010300;28;20771;-55
2023/10/13 10:58:28;;;;;;;2.43;1.87;;;24.50;97.60;;;;;;5027918;28;20218;-55
2023/10/13 11:01:10;;;;;;;7.13;1.93;;;24.50;97.60;;;;;;5016364;28;20203;-56
2023/10/13 11:03:41;;;;;;;4.00;1.50;;;24.40;98.40;;;;;;5020220;28;20268;-55
2023/10/13 11:06:17;;;;;;;8.53;2.23;;;24.40;98.90;;;;;;5007850;28;20269;-55
2023/10/13 11:08:51;;;;;;;8.40;2.03;;;24.40;97.90;;;;;;5017260;28;20985;-55
2023/10/13 11:11:30;;;;;;;3.43;1.80;;;24.40;98.50;;;;;;5012877;28;20199;-56
2023/10/13 11:14:13;;;;;;;7.23;1.87;;;24.40;99.40;;;;;;5019768;28;20253;-59
2023/10/13 11:16:50;;;;;;;3.03;1.80;;;24.60;99.90;;;;;;5027920;28;20282;-60
2023/10/13 11:19:20;;;;;;;4.33;2.23;;;24.60;99.40;;;;;;5023846;28;20230;-60
2023/10/13 11:21:48;;;;;;;4.47;1.27;;;24.50;98.10;;;;;;5029539;28;20266;-61
2023/10/13 11:24:17;;;;;;;5.00;1.33;;;24.60;97.60;;;;;;5026032;28;20227;-61
2023/10/13 11:26:50;;;;;;;2.10;1.27;;;24.50;97.10;;;;;;5020943;28;20234;-57
2023/10/13 11:29:19;;;;;;;4.83;1.73;;;24.50;97.90;;;;;;5026212;28;20226;-56
2023/10/13 11:31:53;;;;;;;2.13;1.40;;;24.50;97.70;;;;;;5019066;28;20220;-57
2023/10/13 11:34:20;;;;;;;7.73;2.10;;;24.60;98.00;;;;;;5018139;28;20233;-57
2023/10/13 11:36:48;;;;;;;3.57;2.17;;;24.60;97.00;;;;;;5019303;28;20313;-56
2023/10/13 11:39:22;;;;;;;4.63;1.77;;;24.70;98.40;;;;;;5012554;28;20222;-56
2023/10/13 11:41:53;;;;;;;7.23;1.40;;;24.70;98.60;;;;;;5014816;28;20200;-57
2023/10/13 11:44:30;;;;;;;3.57;1.53;;;24.60;97.30;;;;;;5017233;28;20226;-57
2023/10/13 11:47:07;;;;;;;5.77;2.10;;;24.70;98.30;;;;;;5012200;28;20217;-56
2023/10/13 11:49:37;;;;;;;4.17;1.60;;;23.80;97.60;;;;;;5014928;28;20307;-57
2023/10/13 11:52:17;;;;;;;2.37;1.30;;;24.70;99.40;;;;;;5014338;28;20306;-57
2023/10/13 11:54:44;;;;;;;4.50;1.90;;;24.70;98.30;;;;;;5015415;28;20667;-57
2023/10/13 11:57:11;;;;;;;1.67;1.17;;;24.80;99.30;;;;;;5026443;28;20202;-57
2023/10/13 11:59:44;;;;;;;1.80;1.70;;;24.80;97.30;;;;;;5017294;28;20223;-56
2023/10/13 12:04:59;;;;;;;3.57;1.53;;;24.80;99.90;;;;;;5012721;28;20715;-57
2023/10/13 12:07:45;;;;;;;4.30;2.00;;;24.80;99.40;;;;;;5016242;28;20243;-57
2023/10/13 12:10:20;;;;;;;3.50;1.73;;;24.80;98.10;;;;;;5016995;28;20697;-57
2023/10/13 12:12:53;;;;;;;2.67;1.43;;;24.70;97.60;;;;;;5016102;28;20198;-57
2023/10/13 12:15:34;;;;;;;1.77;1.40;;;24.90;99.70;;;;;;5063968;22;20321;-59
2023/10/13 12:18:03;;;;;;;5.80;1.60;;;24.80;99.30;;;;;;5061011;28;20205;-59
2023/10/13 12:20:36;;;;;;;3.93;1.77;;;24.80;99.90;;;;;;5067586;28;20193;-59
2023/10/13 12:23:15;;;;;;;4.00;1.73;;;24.80;97.60;;;;;;5063801;28;20320;-59
2023/10/13 12:28:28;;;;;;;6.70;1.80;;;24.70;98.80;;;;;;5045885;28;20214;-59
2023/10/13 12:30:57;;;;;;;3.73;2.10;;;24.70;97.30;;;;;;5041065;28;20755;-59
2023/10/13 12:33:25;;;;;;;3.73;1.60;;;24.60;96.50;;;;;;5041364;28;20194;-59
2023/10/13 12:36:27;;;;;;;2.20;1.40;;;24.60;98.20;;;;;;5041464;28;20230;-59
2023/10/13 12:49:59;;;;;;;5.97;2.37;;;24.60;99.90;;;;;;5041266;28;20272;-59
2023/10/13 12:52:26;;;;;;;5.17;3.40;;;24.60;99.90;;;;;;5038660;28;20201;-59
2023/10/13 12:55:05;;;;;;;5.27;2.80;;;24.40;99.90;;;;;;5041248;28;20225;-59
2023/10/13 12:57:33;;;;;;;15.10;3.17;;;24.40;99.90;;;;;;5041536;28;20292;-59
2023/10/13 13:00:01;;;;;;;3.40;2.03;;;24.10;99.90;;;;;;5040857;28;20194;-59
2023/10/13 13:02:29;;;;;;;8.17;3.40;;;24.20;99.90;;;;;;5038556;28;20259;-59
2023/10/13 13:05:05;;;;;;;13.00;2.47;;;24.20;99.90;;;;;;5039726;28;20229;-59
2023/10/13 13:07:43;;;;;;;7.10;2.33;;;24.20;99.90;;;;;;5039256;28;20197;-61
2023/10/13 13:10:13;;;;;;;10.77;2.50;;;24.10;99.90;;;;;;5042757;28;20589;-59
2023/10/13 13:12:40;;;;;;;9.23;2.97;;;24.00;99.90;;;;;;5040387;28;20776;-59
2023/10/13 13:15:08;;;;;;;8.50;2.37;;;23.90;99.90;;;;;;5041487;28;20233;-59
2023/10/13 13:17:36;;;;;;;7.03;2.37;;;23.90;99.90;;;;;;5045665;28;20739;-59
2023/10/13 13:20:10;;;;;;;5.73;2.77;;;23.80;99.90;;;;;;5047513;28;20203;-59
2023/10/13 13:22:38;;;;;;;7.90;2.73;;;23.80;99.90;;;;;;5050046;28;20315;-59
2023/10/13 13:25:08;;;;;;;5.60;2.40;;;23.80;99.90;;;;;;5045746;28;20280;-59
2023/10/13 13:27:41;;;;;;;6.10;2.53;;;23.80;99.90;;;;;;5045886;28;20631;-58
2023/10/13 13:30:12;;;;;;;7.63;1.90;;;23.80;99.90;;;;;;5042933;28;20292;-59
2023/10/13 13:32:40;;;;;;;4.80;2.57;;;23.70;99.90;;;;;;5044559;28;20211;-59
2023/10/13 13:35:13;;;;;;;5.77;2.10;;;23.70;99.90;;;;;;5050446;28;20218;-59
2023/10/13 13:37:42;;;;;;;6.60;2.80;;;23.70;99.90;;;;;;5048300;28;20209;-59
2023/10/13 13:40:21;;;;;;;5.93;2.80;;;23.70;99.90;;;;;;5050524;28;20217;-59
2023/10/13 13:42:49;;;;;;;3.97;2.97;;;23.70;99.90;;;;;;5048829;28;20621;-58
2023/10/13 13:45:27;;;;;;;8.50;3.37;;;23.70;99.90;;;;;;5044083;28;20648;-61
2023/10/13 13:47:54;;;;;;;4.10;2.27;;;23.60;99.90;;;;;;5045551;28;20669;-59
2023/10/13 13:50:26;;;;;;;3.27;2.97;;;23.50;99.90;;;;;;5041286;28;20201;-59
2023/10/13 13:52:55;;;;;;;9.20;2.93;;;23.60;99.90;;;;;;5039196;28;20665;-60
2023/10/13 13:55:23;;;;;;;3.57;2.47;;;23.60;99.90;;;;;;5039025;28;20788;-59
2023/10/13 13:57:51;;;;;;;5.87;2.17;;;23.60;99.90;;;;;;5040059;28;20695;-59
2023/10/13 14:00:24;;;;;;;5.43;3.00;;;23.60;99.90;;;;;;5039460;28;20212;-59
2023/10/13 14:02:51;;;;;;;2.70;2.27;;;23.60;99.90;;;;;;5036795;28;20692;-59
2023/10/13 14:05:18;;;;;;;3.27;2.77;;;23.60;99.90;;;;;;5039929;28;20267;-59
2023/10/13 14:07:48;;;;;;;15.57;2.90;;;23.50;99.90;;;;;;5033944;28;20646;-59
2023/10/13 14:10:31;;;;;;;7.97;3.30;;;23.50;99.90;;;;;;5037414;28;20206;-59
2023/10/13 14:13:12;;;;;;;7.43;2.30;;;23.50;99.90;;;;;;5039099;28;20285;-59
2023/10/13 14:15:43;;;;;;;7.67;2.40;;;23.50;99.90;;;;;;5038882;28;20233;-59
2023/10/13 14:18:14;;;;;;;5.63;2.63;;;23.50;99.90;;;;;;5038711;28;20716;-59
2023/10/13 14:20:42;;;;;;;5.27;2.73;;;23.40;99.90;;;;;;5041172;28;20570;-59
2023/10/13 14:23:12;;;;;;;4.87;2.33;;;23.40;99.90;;;;;;5033174;28;20229;-58
2023/10/13 14:25:44;;;;;;;5.60;2.60;;;23.40;99.90;;;;;;5039715;28;20745;-58
2023/10/13 14:28:17;;;;;;;4.27;2.67;;;23.40;99.90;;;;;;5037469;28;20561;-59
2023/10/13 14:30:45;;;;;;;4.33;2.50;;;23.30;99.90;;;;;;5039082;28;20677;-59
2023/10/13 14:33:12;;;;;;;6.57;2.23;;;23.20;99.90;;;;;;5041005;28;20230;-58
2023/10/13 14:35:39;;;;;;;9.23;2.97;;;23.20;99.90;;;;;;5036803;28;20217;-59
2023/10/13 14:38:07;;;;;;;5.47;2.30;;;23.20;99.90;;;;;;5040305;28;20247;-59
2023/10/13 14:40:34;;;;;;;5.63;2.57;;;23.10;99.90;;;;;;5038388;28;20686;-59
2023/10/13 14:43:01;;;;;;;6.53;2.47;;;23.00;99.90;;;;;;5039962;28;20210;-59
2023/10/13 14:45:29;;;;;;;6.40;2.80;;;23.00;99.90;;;;;;5039448;28;20502;-59
2023/10/13 14:47:56;;;;;;;3.57;2.30;;;23.10;99.90;;;;;;5040452;28;20271;-59
2023/10/13 14:50:24;;;;;;;12.10;3.37;;;23.10;99.90;;;;;;5038677;28;20310;-59
2023/10/13 14:52:51;;;;;;;6.13;3.07;;;23.00;99.90;;;;;;5037966;28;20206;-58
2023/10/13 14:55:21;;;;;;;4.83;2.50;;;23.00;99.90;;;;;;5038496;28;20210;-58
2023/10/13 14:57:49;;;;;;;5.83;2.50;;;23.00;99.90;;;;;;5038719;28;20225;-59
2023/10/13 15:00:24;;;;;;;4.93;2.90;;;22.90;99.90;;;;;;5039201;28;20226;-59
2023/10/13 15:02:54;;;;;;;12.10;3.07;;;22.80;99.90;;;;;;5038799;28;20214;-59
2023/10/13 15:05:21;;;;;;;22.30;5.70;;;22.80;99.90;;;;;;5039467;28;20268;-58